EW3431 San Felipe MX current weather conditions

sailwx.info

Wind from 109 at 7 knots gusting 12

Air temperature 34.4° C
Dewpoint 25.0° C

Last reported at 2020-Jul-15 19:30 UTC.
Time now 2020-Jul-16 04:05 UTC

Location: N 31°09' W 114°56'.
View on Google Maps.

See reports from other nearby stations

  
Tides and Currents Weather Stations Pressure Air Temp Water Temp Dewpoint Dewpoint Depression Visibility Wind Speed Wind Dir Waves Ship Positions
date/time (UTC)wind fromknots sea level pressurealtimeterstation pressurevisibilityair tempwater tempwave heightnotes
2020-Jul-15 19:30 109 7 gusting 12 34.4
2020-Jul-15 19:15 027 6 gusting 11 33.3
2020-Jul-15 19:00 048 8 gusting 11 34.4
2020-Jul-15 18:45 045 9 gusting 13 33.9
2020-Jul-15 18:30 049 9 gusting 13 34.4
2020-Jul-15 18:15 067 11 gusting 13 36.1
2020-Jul-15 18:00 040 6 gusting 12 36.7
2020-Jul-15 17:45 348 6 gusting 11 36.7
2020-Jul-15 17:30 336 4 gusting 11 36.7
2020-Jul-15 17:15 355 5 gusting 11 36.1
2020-Jul-15 17:00 338 7 gusting 11 35.6
2020-Jul-15 16:45 355 6 gusting 9 35.6
2020-Jul-15 16:32 005 6 gusting 11 34.4
2020-Jul-15 16:17 360 6 gusting 9 34.4
2020-Jul-15 16:01 005 6 gusting 9 33.9
2020-Jul-15 15:46 323 4 gusting 8 32.8
2020-Jul-15 15:31 328 3 gusting 7 32.2
2020-Jul-15 15:17 342 3 gusting 8 32.2
2020-Jul-15 15:02 351 4 gusting 7 32.2
2020-Jul-15 14:45 350 0 gusting 1 32.2
2020-Jul-15 14:31 347 0 gusting 3 31.7
2020-Jul-15 14:15 055 31.1
2020-Jul-15 14:01 248 29.4
2020-Jul-15 13:47 253 0 gusting 2 28.3
2020-Jul-15 13:30 263 0 gusting 3 27.2
2020-Jul-15 13:01 242 0 gusting 3 26.7
2020-Jul-15 12:46 254 1 gusting 4 26.7
2020-Jul-15 12:31 257 1 gusting 3 27.2
2020-Jul-15 12:15 259 1 gusting 3 27.8
2020-Jul-15 12:00 269 2 gusting 5 27.8
2020-Jul-15 11:46 271 2 gusting 5 28.3
2020-Jul-15 11:31 340 0 gusting 1 28.9
2020-Jul-15 11:15 340 29.4
2020-Jul-15 11:00 340 0 gusting 1 30.0
2020-Jul-15 10:45 025 30.6
2020-Jul-15 10:30 005 3 gusting 7 31.1
2020-Jul-15 10:15 240 1 gusting 4 31.1
2020-Jul-15 10:00 248 2 gusting 4 31.1
2020-Jul-15 09:45 257 3 gusting 7 32.8
2020-Jul-15 09:31 272 2 gusting 6 32.2
2020-Jul-15 09:16 252 2 gusting 5 31.7
2020-Jul-15 09:01 262 2 gusting 5 31.7
2020-Jul-15 08:47 286 2 gusting 4 32.8
2020-Jul-15 08:31 271 3 gusting 6 32.8
2020-Jul-15 08:16 225 3 gusting 6 33.3
2020-Jul-15 08:01 234 3 gusting 7 33.9
2020-Jul-15 07:46 234 2 gusting 5 33.9
2020-Jul-15 07:16 261 3 gusting 7 34.4
2020-Jul-15 07:00 262 3 gusting 6 34.4
2020-Jul-15 06:45 278 1 gusting 8 35.0
2020-Jul-15 06:31 248 7 gusting 11 36.1
2020-Jul-15 06:15 351 5 gusting 10 36.1
2020-Jul-15 06:00 281 6 gusting 11 36.1
2020-Jul-15 05:45 269 5 gusting 9 35.6
2020-Jul-15 05:31 252 6 gusting 9 35.0
2020-Jul-15 05:15 307 33.3
2020-Jul-15 05:00 317 1 gusting 3 32.2
2020-Jul-15 04:45 322 0 gusting 2 32.2
2020-Jul-15 04:30 288 32.2
2020-Jul-15 04:15 314 32.2
2020-Jul-15 03:45 027 0 gusting 3 32.8
2020-Jul-15 03:30 076 32.8
2020-Jul-15 03:15 076 32.8
2020-Jul-15 03:00 076 33.3
2020-Jul-15 02:45 076 33.3
2020-Jul-15 02:30 090 2 gusting 5 33.9
2020-Jul-15 02:15 065 3 gusting 5 34.4
2020-Jul-15 02:00 078 4 gusting 5 35.0
2020-Jul-15 01:45 057 3 gusting 5 35.6
2020-Jul-15 01:30 101 6 gusting 9 36.1
2020-Jul-15 01:15 096 6 gusting 11 36.1
2020-Jul-15 01:00 129 6 gusting 11 36.1
2020-Jul-15 00:45 105 7 gusting 12 35.6
2020-Jul-15 00:30 116 9 gusting 12 36.7
2020-Jul-15 00:15 133 8 gusting 13 37.2
2020-Jul-15 00:00 131 10 gusting 14 37.2
2020-Jul-14 23:45 110 11 gusting 14 36.7
2020-Jul-14 23:31 117 9 gusting 14 36.7
2020-Jul-14 23:16 105 9 gusting 14 37.2
2020-Jul-14 23:01 115 9 gusting 13 37.2
2020-Jul-14 22:46 111 10 gusting 15 37.2
2020-Jul-14 22:31 096 9 gusting 13 37.8
2020-Jul-14 22:16 105 10 gusting 14 37.2
2020-Jul-14 22:01 100 8 gusting 13 36.7
2020-Jul-14 21:49 111 10 gusting 14 35.6
2020-Jul-14 21:31 103 10 gusting 15 35.6
2020-Jul-14 21:17 119 9 gusting 14 35.6
2020-Jul-14 21:01 091 8 gusting 12 36.1
2020-Jul-14 20:46 109 8 gusting 13 35.6
2020-Jul-14 20:31 096 9 gusting 13 35.6
2020-Jul-14 20:16 106 7 gusting 13 35.0
2020-Jul-14 20:01 082 7 gusting 11 36.7
2020-Jul-14 19:45 107 8 gusting 12 36.1
2020-Jul-14 19:31 114 7 gusting 12 36.1
2020-Jul-14 19:16 082 6 gusting 12 35.6
2020-Jul-14 19:01 091 5 gusting 10 35.6
2020-Jul-14 18:46 117 6 gusting 10 34.4
2020-Jul-14 18:31 103 6 gusting 10 34.4
2020-Jul-14 18:15 059 5 gusting 9 34.4
2020-Jul-14 18:01 098 6 gusting 11 34.4
2020-Jul-14 17:45 114 6 gusting 9 33.9
2020-Jul-14 17:30 084 5 gusting 7 33.9
2020-Jul-14 17:00
2020-Jul-14 16:00
2020-Jul-14 14:01
2020-Jul-14 13:15
2020-Jul-14 13:01
2020-Jul-14 12:30 293 27.2
2020-Jul-14 12:16 283 27.8
2020-Jul-14 12:01 276 27.8
2020-Jul-14 11:45
2020-Jul-14 11:15
2020-Jul-14 11:01
2020-Jul-14 10:46
2020-Jul-14 10:31
2020-Jul-14 10:15
2020-Jul-14 10:00
2020-Jul-14 09:45
2020-Jul-14 09:30
2020-Jul-14 09:15 28.9
2020-Jul-14 09:01 28.9
2020-Jul-14 08:45 080 30.0
2020-Jul-14 08:30 30.6
2020-Jul-14 08:15 080 0 31.1
2020-Jul-14 08:00 046 31.7
2020-Jul-14 07:45 046 0 31.7
2020-Jul-14 07:31 192 0 30.6
2020-Jul-14 07:15 30.0
2020-Jul-14 06:46 30.6
2020-Jul-14 06:31 30.6
2020-Jul-14 06:17
2020-Jul-14 06:01
2020-Jul-14 05:47
2020-Jul-14 05:31
2020-Jul-14 05:16 325 6 37.2
2020-Jul-14 05:01 299 4 37.2
2020-Jul-14 04:46 300 3 37.2
2020-Jul-14 04:33 301 4 36.1
2020-Jul-14 04:16 329 5 gusting 10 35.0
2020-Jul-14 04:01 355 0 gusting 4 32.2